Time;durP1;ratioP1;P1;durP2;ratioP2;P2;SDS_P1;SDS_P2;PMS_P1;PMS_P2;Temp;Humidity;BMP_temperature;BMP_pressure;BME280_temperature;BME280_humidity;BME280_pressure;Samples;Min_cycle;Max_cycle;Signal;HPM_P1;HPM_P2
2022/11/20 00:02:16;;;;;;;22.25;13.02;;;;;;;-2.91;100.00;101330.47;5033125;28;20116;-73
2022/11/20 00:04:41;;;;;;;24.00;13.52;;;;;;;-2.94;100.00;101339.66;5032949;28;20095;-73
2022/11/20 00:07:07;;;;;;;21.85;12.50;;;;;;;-2.96;100.00;101341.28;5033949;28;20028;-74
2022/11/20 00:09:33;;;;;;;22.52;13.20;;;;;;;-3.04;100.00;101330.78;5033114;28;20480;-74
2022/11/20 00:11:59;;;;;;;21.52;12.07;;;;;;;-3.01;100.00;101335.13;5033864;28;20025;-73
2022/11/20 00:14:24;;;;;;;23.52;14.02;;;;;;;-3.04;100.00;101341.00;5033375;28;20056;-73
2022/11/20 00:16:49;;;;;;;21.98;12.82;;;;;;;-3.03;100.00;101339.31;5032746;28;20082;-73
2022/11/20 00:19:15;;;;;;;25.00;13.80;;;;;;;-3.03;100.00;101341.84;5033384;28;20029;-73
2022/11/20 00:21:40;;;;;;;23.27;13.43;;;;;;;-3.07;100.00;101330.66;5033779;28;20104;-73
2022/11/20 00:24:08;;;;;;;22.77;13.68;;;;;;;-3.06;100.00;101337.50;5032877;28;20461;-73
2022/11/20 00:26:33;;;;;;;25.98;13.38;;;;;;;-3.14;100.00;101324.44;5033635;28;20032;-73
2022/11/20 00:29:00;;;;;;;22.20;13.38;;;;;;;-3.17;100.00;101324.31;5033559;28;20018;-73
2022/11/20 00:31:27;;;;;;;21.90;13.65;;;;;;;-3.27;100.00;101311.13;5032874;28;20022;-73
2022/11/20 00:33:52;;;;;;;23.48;14.15;;;;;;;-3.24;100.00;101327.41;5033330;28;20528;-73
2022/11/20 00:36:20;;;;;;;26.15;13.82;;;;;;;-3.31;100.00;101317.78;5033184;28;20117;-73
2022/11/20 00:38:45;;;;;;;25.92;13.68;;;;;;;-3.24;100.00;101329.97;5032722;28;20029;-73
2022/11/20 00:41:14;;;;;;;23.80;13.85;;;;;;;-3.22;100.00;101330.91;5033526;28;20025;-73
2022/11/20 00:43:39;;;;;;;27.65;14.75;;;;;;;-3.23;100.00;101331.72;5033527;28;20100;-73
2022/11/20 00:46:13;;;;;;;25.25;14.45;;;;;;;-3.24;100.00;101324.88;5032482;28;20449;-73
2022/11/20 00:48:39;;;;;;;25.60;13.80;;;;;;;-3.27;100.00;101323.88;5033277;28;20392;-73
2022/11/20 00:51:04;;;;;;;22.58;14.25;;;;;;;-3.27;100.00;101329.88;5033185;28;20121;-73
2022/11/20 00:53:31;;;;;;;25.40;14.88;;;;;;;-3.29;100.00;101331.47;5032644;28;20072;-73
2022/11/20 00:56:01;;;;;;;23.38;14.00;;;;;;;-3.31;100.00;101325.44;5032993;28;20026;-73
2022/11/20 00:58:32;;;;;;;21.63;13.43;;;;;;;-3.38;100.00;101318.34;5033423;28;20037;-73
2022/11/20 01:01:09;;;;;;;25.63;13.55;;;;;;;-3.37;100.00;101327.72;5032488;28;20017;-73
2022/11/20 01:03:36;;;;;;;24.40;14.32;;;;;;;-3.36;100.00;101324.41;5033031;28;20033;-73
2022/11/20 01:06:24;;;;;;;25.02;14.27;;;;;;;-3.36;100.00;101330.34;5032571;28;20026;-73
2022/11/20 01:08:52;;;;;;;22.50;13.60;;;;;;;-3.39;100.00;101326.81;5019952;28;20080;-73
2022/11/20 01:11:26;;;;;;;25.05;14.55;;;;;;;-3.44;100.00;101326.59;5033152;28;20026;-73
2022/11/20 01:13:53;;;;;;;26.27;15.25;;;;;;;-3.50;100.00;101317.84;5035165;28;20037;-73
2022/11/20 01:16:21;;;;;;;25.45;14.95;;;;;;;-3.47;100.00;101328.16;5036705;28;20029;-73
2022/11/20 01:18:50;;;;;;;25.73;13.57;;;;;;;-3.52;100.00;101322.88;5036773;28;20515;-73
2022/11/20 01:21:18;;;;;;;26.67;14.68;;;;;;;-3.47;100.00;101328.16;5036153;28;20029;-73
2022/11/20 01:23:44;;;;;;;27.58;14.25;;;;;;;-3.50;100.00;101330.59;5036870;28;20022;-73
2022/11/20 01:26:13;;;;;;;26.08;14.13;;;;;;;-3.45;100.00;101331.66;5036970;28;20035;-73
2022/11/20 01:28:39;;;;;;;23.90;14.18;;;;;;;-3.33;100.00;101332.16;5035802;28;20024;-73
2022/11/20 01:31:15;;;;;;;25.90;13.75;;;;;;;-3.22;100.00;101330.91;5036863;28;20033;-73
2022/11/20 01:33:40;;;;;;;25.77;14.73;;;;;;;-3.15;100.00;101324.38;5036799;28;20014;-73
2022/11/20 01:36:07;;;;;;;26.83;15.07;;;;;;;-3.06;100.00;101317.09;5035594;28;20037;-73
2022/11/20 01:38:32;;;;;;;24.25;13.82;;;;;;;-3.01;100.00;101312.16;5036406;28;20036;-73
2022/11/20 01:40:58;;;;;;;26.48;14.60;;;;;;;-3.04;100.00;101310.38;5035470;28;20109;-74
2022/11/20 01:43:25;;;;;;;24.80;13.80;;;;;;;-3.03;100.00;101312.09;5036640;28;20029;-73
2022/11/20 01:46:12;;;;;;;23.80;14.10;;;;;;;-3.02;100.00;101323.19;5036587;28;20036;-73
2022/11/20 01:48:49;;;;;;;23.58;13.65;;;;;;;-3.03;100.00;101311.25;5035778;28;20120;-73
2022/11/20 01:51:30;;;;;;;24.55;13.93;;;;;;;-3.08;100.00;101319.56;5036362;28;20037;-73
2022/11/20 01:53:59;;;;;;;24.67;13.50;;;;;;;-3.17;100.00;101318.31;5036448;28;20083;-73
2022/11/20 01:56:26;;;;;;;26.60;13.50;;;;;;;-3.17;100.00;101320.88;5035542;28;20396;-73
2022/11/20 01:58:55;;;;;;;24.15;13.60;;;;;;;-3.13;100.00;101327.88;5036110;28;20109;-73
2022/11/20 02:01:21;;;;;;;27.63;14.75;;;;;;;-3.11;100.00;101316.91;5036211;28;20032;-73
2022/11/20 02:03:48;;;;;;;25.23;14.32;;;;;;;-3.11;100.00;101308.38;5035206;28;20025;-73
2022/11/20 02:06:22;;;;;;;26.73;13.45;;;;;;;-3.09;100.00;101320.38;5036151;28;20028;-73
2022/11/20 02:08:48;;;;;;;20.88;13.13;;;;;;;-3.12;100.00;101317.72;5036133;28;20030;-73
2022/11/20 02:11:13;;;;;;;21.60;12.77;;;;;;;-3.18;100.00;101308.94;5035414;28;20163;-73
2022/11/20 02:13:44;;;;;;;21.30;12.88;;;;;;;-3.24;100.00;101309.56;5035679;28;20045;-73
2022/11/20 02:16:14;;;;;;;27.73;13.98;;;;;;;-3.26;100.00;101303.56;5034914;28;20080;-73
2022/11/20 02:18:41;;;;;;;25.30;13.93;;;;;;;-3.31;100.00;101308.44;5035759;28;20108;-73
2022/11/20 02:21:13;;;;;;;22.40;14.10;;;;;;;-3.34;100.00;101310.00;5035967;28;20026;-73
2022/11/20 02:23:55;;;;;;;23.92;13.82;;;;;;;-3.35;100.00;101305.72;5034134;28;20481;-73
2022/11/20 02:26:22;;;;;;;28.70;14.45;;;;;;;-3.33;100.00;101312.63;5035755;28;20396;-73
2022/11/20 02:28:48;;;;;;;24.92;14.25;;;;;;;-3.28;100.00;101306.84;5035738;28;20065;-73
2022/11/20 02:31:13;;;;;;;28.10;14.80;;;;;;;-3.25;100.00;101307.84;5034639;28;20057;-73
2022/11/20 02:33:39;;;;;;;26.80;13.90;;;;;;;-3.23;100.00;101308.78;5035406;28;20108;-73
2022/11/20 02:36:04;;;;;;;27.10;14.38;;;;;;;-3.23;100.00;101290.06;5035715;28;20021;-73
2022/11/20 02:38:30;;;;;;;23.98;14.05;;;;;;;-3.11;100.00;101291.41;5034830;28;20125;-73
2022/11/20 02:40:55;;;;;;;25.80;14.90;;;;;;;-3.02;100.00;101302.78;5035228;28;20037;-73
2022/11/20 02:43:20;;;;;;;25.50;14.38;;;;;;;-2.98;100.00;101304.63;5035492;28;20151;-73
2022/11/20 02:45:45;;;;;;;25.60;14.77;;;;;;;-2.99;100.00;101295.25;5034342;28;20025;-73
2022/11/20 02:48:11;;;;;;;25.17;14.35;;;;;;;-2.92;100.00;101305.72;5035365;28;20013;-73
2022/11/20 02:50:38;;;;;;;22.88;14.02;;;;;;;-2.87;100.00;101303.38;5035332;28;20032;-73
2022/11/20 02:53:03;;;;;;;26.48;14.20;;;;;;;-2.82;100.00;101307.81;5034413;28;20036;-73
2022/11/20 02:55:28;;;;;;;22.95;13.40;;;;;;;-2.74;100.00;101304.72;5035160;28;20029;-73
2022/11/20 02:57:54;;;;;;;25.70;14.70;;;;;;;-2.70;100.00;101304.00;5034949;28;20457;-73
2022/11/20 03:00:19;;;;;;;24.02;13.75;;;;;;;-2.67;100.00;101296.47;5034026;28;20024;-73
2022/11/20 03:02:44;;;;;;;24.60;13.57;;;;;;;-2.59;100.00;101292.50;5035150;28;20017;-73
2022/11/20 03:05:10;;;;;;;24.92;14.35;;;;;;;-2.53;100.00;101289.31;5034760;28;20024;-73
2022/11/20 03:07:35;;;;;;;26.00;14.35;;;;;;;-2.45;100.00;101293.03;5034560;28;20144;-73
2022/11/20 03:10:00;;;;;;;23.90;14.13;;;;;;;-2.42;100.00;101290.56;5035016;28;20053;-73
2022/11/20 03:12:25;;;;;;;27.02;14.32;;;;;;;-2.39;100.00;101288.13;5033748;28;20513;-74
2022/11/20 03:14:51;;;;;;;23.25;13.98;;;;;;;-2.44;100.00;101279.44;5034606;28;20465;-73
2022/11/20 03:17:16;;;;;;;23.52;14.10;;;;;;;-2.37;100.00;101289.06;5034742;28;20029;-73
2022/11/20 03:19:41;;;;;;;24.27;14.38;;;;;;;-2.31;100.00;101290.97;5034055;28;20053;-73
2022/11/20 03:22:06;;;;;;;26.55;14.13;;;;;;;-2.30;100.00;101283.34;5034622;28;20039;-73
2022/11/20 03:24:32;;;;;;;24.27;13.95;;;;;;;-2.39;100.00;101278.81;5034191;28;20029;-73
2022/11/20 03:26:57;;;;;;;25.85;14.30;;;;;;;-2.35;100.00;101279.78;5033788;28;20022;-73
2022/11/20 03:29:22;;;;;;;28.33;14.88;;;;;;;-2.32;100.00;101277.34;5034353;28;20385;-73
2022/11/20 03:31:47;;;;;;;23.80;14.05;;;;;;;-2.31;100.00;101281.63;5034608;28;20033;-73
2022/11/20 03:34:13;;;;;;;20.60;12.88;;;;;;;-2.35;100.00;101274.69;5033735;28;20377;-73
2022/11/20 03:36:39;;;;;;;24.80;14.15;;;;;;;-2.33;100.00;101267.06;5034103;28;20088;-73
2022/11/20 03:39:04;;;;;;;25.85;14.40;;;;;;;-2.39;100.00;101260.03;5034527;28;20094;-73
2022/11/20 03:41:31;;;;;;;25.75;15.02;;;;;;;-2.35;100.00;101254.25;5033468;28;20536;-73
2022/11/20 03:44:02;;;;;;;24.13;14.60;;;;;;;-2.39;100.00;101253.28;5034073;28;20488;-73
2022/11/20 03:46:28;;;;;;;26.88;14.90;;;;;;;-2.41;100.00;101256.56;5034268;28;20026;-73
2022/11/20 03:48:54;;;;;;;27.67;14.93;;;;;;;-2.42;100.00;101248.06;5033494;28;20435;-73
2022/11/20 03:51:21;;;;;;;24.13;14.68;;;;;;;-2.46;100.00;101258.09;5034005;28;20058;-73
2022/11/20 03:53:47;;;;;;;24.10;14.88;;;;;;;-2.51;100.00;101255.38;5033876;28;20385;-73
2022/11/20 03:56:16;;;;;;;22.92;13.50;;;;;;;-2.53;100.00;101245.91;5033074;28;20033;-73
2022/11/20 03:58:42;;;;;;;23.63;14.73;;;;;;;-2.56;100.00;101246.66;5033850;28;20032;-73
2022/11/20 04:01:10;;;;;;;24.23;14.25;;;;;;;-2.64;100.00;101241.28;5034064;28;20025;-73
2022/11/20 04:03:37;;;;;;;25.77;15.25;;;;;;;-2.63;100.00;101243.03;5032799;28;20021;-73
2022/11/20 04:06:10;;;;;;;23.15;14.13;;;;;;;-2.67;100.00;101241.19;5033846;28;20051;-73
2022/11/20 04:08:35;;;;;;;26.52;14.45;;;;;;;-2.65;100.00;101241.22;5033076;28;20021;-73
2022/11/20 04:11:22;;;;;;;26.60;15.27;;;;;;;-2.61;100.00;101246.50;5033897;28;20535;-73
2022/11/20 04:13:52;;;;;;;26.83;14.60;;;;;;;-2.63;100.00;101237.91;5033597;28;20056;-73
2022/11/20 04:16:18;;;;;;;26.83;15.13;;;;;;;-2.57;100.00;101244.06;5032973;28;20030;-73
2022/11/20 04:18:43;;;;;;;26.52;14.63;;;;;;;-2.56;100.00;101245.81;5033603;28;20104;-73
2022/11/20 04:21:09;;;;;;;24.60;14.88;;;;;;;-2.55;100.00;101242.44;5033463;28;20024;-73
2022/11/20 04:23:34;;;;;;;27.35;15.00;;;;;;;-2.53;100.00;101243.38;5032956;28;20029;-73
2022/11/20 04:26:06;;;;;;;24.70;14.95;;;;;;;-2.55;100.00;101227.09;5033434;28;20029;-73
2022/11/20 04:28:31;;;;;;;25.92;15.88;;;;;;;-2.47;100.00;101243.59;5033596;28;20036;-73
2022/11/20 04:31:03;;;;;;;25.60;14.30;;;;;;;-2.50;100.00;101239.22;5032790;28;20414;-73
2022/11/20 04:33:28;;;;;;;26.75;15.00;;;;;;;-2.50;100.00;101230.72;5033402;28;20029;-73
2022/11/20 04:35:53;;;;;;;26.15;14.68;;;;;;;-2.51;100.00;101231.53;5033316;28;20029;-73
2022/11/20 04:38:19;;;;;;;23.23;13.90;;;;;;;-2.48;100.00;101235.06;5032425;28;20033;-73
2022/11/20 04:40:44;;;;;;;27.42;15.07;;;;;;;-2.46;100.00;101224.88;5033152;28;20021;-73
2022/11/20 04:43:09;;;;;;;24.33;15.13;;;;;;;-2.48;100.00;101227.41;5033518;28;20424;-73
2022/11/20 04:45:34;;;;;;;25.23;14.73;;;;;;;-2.47;100.00;101226.59;5032664;28;20040;-73
2022/11/20 04:48:00;;;;;;;26.08;15.50;;;;;;;-2.43;100.00;101230.09;5035027;28;20064;-73
2022/11/20 04:50:25;;;;;;;25.92;15.18;;;;;;;-2.43;100.00;101225.88;5037622;28;20083;-73
2022/11/20 04:52:50;;;;;;;26.10;15.50;;;;;;;-2.47;100.00;101220.59;5036408;28;20024;-73
2022/11/20 04:55:16;;;;;;;24.73;15.30;;;;;;;-2.46;100.00;101230.88;5037477;28;20033;-73
2022/11/20 04:57:41;;;;;;;26.58;15.88;;;;;;;-2.52;100.00;101215.31;5037244;28;20061;-73
2022/11/20 05:00:07;;;;;;;25.98;14.82;;;;;;;-2.49;100.00;101224.78;5036557;28;20067;-73
2022/11/20 05:02:32;;;;;;;25.67;15.15;;;;;;;-2.46;100.00;101218.09;5037201;28;20025;-73
2022/11/20 05:04:57;;;;;;;26.40;14.65;;;;;;;-2.47;100.00;101220.59;5036486;28;20052;-73
2022/11/20 05:07:23;;;;;;;26.27;15.13;;;;;;;-2.52;100.00;101217.88;5037272;28;20113;-73
2022/11/20 05:09:48;;;;;;;25.05;14.40;;;;;;;-2.55;100.00;101224.56;5037317;28;20025;-73
2022/11/20 05:12:13;;;;;;;26.80;14.88;;;;;;;-2.62;100.00;101203.06;5036177;28;20496;-73
2022/11/20 05:14:38;;;;;;;26.42;15.43;;;;;;;-2.66;100.00;101206.31;5036707;28;20136;-73
2022/11/20 05:17:04;;;;;;;24.42;15.23;;;;;;;-2.67;100.00;101199.47;5036944;28;20044;-73
2022/11/20 05:19:29;;;;;;;28.08;16.35;;;;;;;-2.68;100.00;101196.06;5036347;28;20029;-73
2022/11/20 05:21:54;;;;;;;26.55;15.52;;;;;;;-2.58;100.00;101207.47;5036805;28;20396;-73
2022/11/20 05:24:19;;;;;;;29.52;16.02;;;;;;;-2.55;100.00;101199.03;5036968;28;20024;-73
2022/11/20 05:26:45;;;;;;;26.63;15.55;;;;;;;-2.54;100.00;101185.47;5036114;28;20022;-73
2022/11/20 05:29:11;;;;;;;27.27;14.95;;;;;;;-2.45;100.00;101190.91;5036727;28;20032;-73
2022/11/20 05:31:39;;;;;;;28.83;15.43;;;;;;;-2.46;100.00;101196.81;5036776;28;20164;-73
2022/11/20 05:34:04;;;;;;;28.10;16.08;;;;;;;-2.49;100.00;101195.00;5035998;28;20029;-73
2022/11/20 05:36:29;;;;;;;28.77;15.60;;;;;;;-2.53;100.00;101179.53;5036465;28;20432;-73
2022/11/20 05:38:55;;;;;;;30.48;15.23;;;;;;;-2.46;100.00;101187.47;5036749;28;20025;-73
2022/11/20 05:41:20;;;;;;;23.45;14.45;;;;;;;-2.40;100.00;101199.56;5035894;28;20539;-73
2022/11/20 05:43:47;;;;;;;27.60;15.10;;;;;;;-2.39;100.00;101196.19;5036313;28;20024;-73
2022/11/20 05:46:14;;;;;;;26.63;15.68;;;;;;;-2.37;100.00;101190.34;5036575;28;20037;-73
2022/11/20 05:48:41;;;;;;;25.67;14.85;;;;;;;-2.33;100.00;101201.53;5035828;28;20037;-73
2022/11/20 05:51:09;;;;;;;26.17;14.73;;;;;;;-2.30;100.00;101204.19;5036494;28;20044;-73
2022/11/20 05:53:35;;;;;;;27.45;16.05;;;;;;;-2.28;100.00;101209.38;5036156;28;20021;-73
2022/11/20 05:56:03;;;;;;;27.08;16.13;;;;;;;-2.25;100.00;101206.91;5035516;28;20033;-73
2022/11/20 05:58:30;;;;;;;26.90;15.90;;;;;;;-2.20;100.00;101229.22;5035835;28;20025;-73
2022/11/20 06:01:10;;;;;;;25.45;15.32;;;;;;;-2.17;100.00;101228.47;5036139;28;20471;-73
2022/11/20 06:03:35;;;;;;;24.67;15.10;;;;;;;-2.15;100.00;101214.94;5036060;28;20389;-73
2022/11/20 06:06:02;;;;;;;26.58;14.93;;;;;;;-2.09;100.00;101233.81;5036239;28;20040;-73
2022/11/20 06:08:28;;;;;;;26.27;15.88;;;;;;;-2.11;100.00;101213.34;5035314;28;20032;-73
2022/11/20 06:10:53;;;;;;;24.92;15.20;;;;;;;-2.01;100.00;101222.19;5035867;28;20033;-73
2022/11/20 06:13:18;;;;;;;27.60;15.25;;;;;;;-1.92;100.00;101225.94;5035746;28;20076;-73
2022/11/20 06:15:53;;;;;;;25.85;15.30;;;;;;;-1.86;100.00;101226.94;5035130;28;20044;-73
2022/11/20 06:18:19;;;;;;;29.48;16.00;;;;;;;-1.83;100.00;101217.72;5035634;28;20030;-73
2022/11/20 06:20:45;;;;;;;26.77;15.75;;;;;;;-1.80;100.00;101217.81;5035954;28;20017;-73
2022/11/20 06:23:11;;;;;;;28.38;16.08;;;;;;;-1.77;100.00;101212.75;5035079;28;20021;-73
2022/11/20 06:25:41;;;;;;;26.83;15.65;;;;;;;-1.74;100.00;101215.44;5035467;28;20052;-73
2022/11/20 06:28:07;;;;;;;25.90;15.63;;;;;;;-1.70;100.00;101211.28;5035853;28;20484;-73
2022/11/20 06:30:32;;;;;;;26.45;15.05;;;;;;;-1.68;100.00;101215.63;5035010;28;20051;-73
2022/11/20 06:32:58;;;;;;;27.73;15.70;;;;;;;-1.66;100.00;101223.38;5035654;28;20034;-73
2022/11/20 06:35:23;;;;;;;27.40;15.15;;;;;;;-1.65;100.00;101210.63;5035627;28;20056;-73
2022/11/20 06:37:48;;;;;;;28.52;16.23;;;;;;;-1.63;100.00;101203.00;5034903;28;20032;-73
2022/11/20 06:40:13;;;;;;;26.10;15.75;;;;;;;-1.59;100.00;101209.09;5035320;28;20475;-73
2022/11/20 06:42:39;;;;;;;24.92;15.30;;;;;;;-1.56;100.00;101201.50;5035355;28;20029;-73
2022/11/20 06:45:04;;;;;;;25.48;15.05;;;;;;;-1.56;100.00;101198.97;5034675;28;20156;-73
2022/11/20 06:47:30;;;;;;;27.10;16.85;;;;;;;-1.59;100.00;101201.41;5035456;28;20033;-73
2022/11/20 06:49:55;;;;;;;28.88;16.42;;;;;;;-1.53;100.00;101201.63;5035486;28;20022;-73
2022/11/20 06:52:20;;;;;;;23.30;15.20;;;;;;;-1.53;100.00;101193.94;5034575;28;20017;-73
2022/11/20 06:54:45;;;;;;;25.70;16.58;;;;;;;-1.53;100.00;101192.25;5035280;28;20381;-73
2022/11/20 06:57:11;;;;;;;28.63;16.70;;;;;;;-1.47;100.00;101199.25;5035216;28;20057;-73
2022/11/20 06:59:36;;;;;;;27.15;16.40;;;;;;;-1.44;100.00;101189.97;5034226;28;20044;-73
2022/11/20 07:02:02;;;;;;;25.92;16.17;;;;;;;-1.39;100.00;101194.38;5035177;28;20384;-73
2022/11/20 07:04:27;;;;;;;27.52;15.70;;;;;;;-1.38;100.00;101198.66;5034403;28;20025;-74
2022/11/20 07:06:52;;;;;;;31.00;17.55;;;;;;;-1.36;100.00;101208.09;5035125;28;20388;-73
2022/11/20 07:09:17;;;;;;;27.50;16.23;;;;;;;-1.38;100.00;101199.50;5034702;28;20030;-73
2022/11/20 07:11:43;;;;;;;29.23;17.33;;;;;;;-1.34;100.00;101203.94;5033624;28;20033;-73
2022/11/20 07:14:08;;;;;;;30.00;17.08;;;;;;;-1.30;100.00;101192.09;5034450;28;20057;-73
2022/11/20 07:16:33;;;;;;;30.67;17.55;;;;;;;-1.31;100.00;101185.22;5034600;28;20033;-73
2022/11/20 07:18:58;;;;;;;30.73;17.20;;;;;;;-1.25;100.00;101183.72;5033788;28;20025;-73
2022/11/20 07:21:24;;;;;;;31.45;17.73;;;;;;;-1.27;100.00;101175.16;5034759;28;20021;-73
2022/11/20 07:23:49;;;;;;;35.03;19.02;;;;;;;-1.20;100.00;101184.72;5034588;28;20025;-73
2022/11/20 07:26:14;;;;;;;36.13;20.58;;;;;;;-1.16;100.00;101192.50;5033939;28;20134;-73
2022/11/20 07:28:39;;;;;;;37.10;20.10;;;;;;;-1.17;100.00;101188.22;5034330;28;20370;-73
2022/11/20 07:31:06;;;;;;;34.22;20.30;;;;;;;-1.13;100.00;101190.91;5034228;28;20072;-73
2022/11/20 07:33:32;;;;;;;33.72;20.15;;;;;;;-1.12;100.00;101178.97;5033741;28;20025;-73
2022/11/20 07:35:59;;;;;;;34.50;19.55;;;;;;;-1.14;100.00;101183.19;5034164;28;20362;-73
2022/11/20 07:38:25;;;;;;;37.42;21.20;;;;;;;-1.13;100.00;101185.78;5034476;28;20033;-73
2022/11/20 07:40:54;;;;;;;33.03;19.10;;;;;;;-1.16;100.00;101180.56;5033498;28;20047;-73
2022/11/20 07:43:20;;;;;;;36.30;19.30;;;;;;;-1.12;100.00;101184.94;5034635;28;20024;-73
2022/11/20 07:45:45;;;;;;;32.53;18.85;;;;;;;-1.11;100.00;101184.16;5034016;28;20037;-73
2022/11/20 07:48:10;;;;;;;30.70;17.38;;;;;;;-1.09;100.00;101174.81;5033527;28;20105;-73
2022/11/20 07:50:35;;;;;;;34.58;18.67;;;;;;;-1.01;100.00;101181.03;5033953;28;20037;-73
2022/11/20 07:53:05;;;;;;;30.88;17.38;;;;;;;-0.94;100.00;101187.19;5034168;28;20105;-74
2022/11/20 07:55:31;;;;;;;29.55;16.65;;;;;;;-0.86;100.00;101188.25;5033294;28;20052;-73
2022/11/20 07:57:57;;;;;;;31.88;16.92;;;;;;;-0.75;100.00;101186.03;5034173;28;20033;-73
2022/11/20 08:00:23;;;;;;;25.85;15.93;;;;;;;-0.67;100.00;101191.34;5033804;28;20030;-73
2022/11/20 08:02:48;;;;;;;28.00;16.83;;;;;;;-0.58;100.00;101195.03;5033203;28;20105;-74
2022/11/20 08:05:13;;;;;;;27.40;16.35;;;;;;;-0.54;100.00;101185.75;5033808;28;20457;-73
2022/11/20 08:07:41;;;;;;;28.13;16.67;;;;;;;-0.45;100.00;101186.00;5033316;28;20037;-74
2022/11/20 08:10:08;;;;;;;28.10;16.42;;;;;;;-0.39;100.00;101183.59;5033955;28;20021;-74
2022/11/20 08:15:17;;;;;;;;;;;;;;;-0.20;100.00;101184.06;5033390;28;20087;-74
2022/11/20 08:17:42;;;;;;;27.02;15.82;;;;;;;-0.17;100.00;101181.56;5033789;28;19913;-74
2022/11/20 08:20:08;;;;;;;30.25;16.65;;;;;;;-0.14;100.00;101179.09;5033461;28;20480;-74
2022/11/20 08:22:34;;;;;;;27.85;16.00;;;;;;;-0.10;100.00;101191.16;5031820;28;20029;-74
2022/11/20 08:24:59;;;;;;;28.30;17.40;;;;;;;-0.13;100.00;101186.84;5033443;28;20021;-74
2022/11/20 08:27:24;;;;;;;27.70;16.63;;;;;;;-0.10;100.00;101180.91;5033343;28;20017;-74
2022/11/20 08:29:49;;;;;;;27.33;16.38;;;;;;;-0.06;100.00;101181.03;5032976;28;20508;-74
2022/11/20 08:32:15;;;;;;;26.88;16.20;;;;;;;0.01;100.00;101183.75;5033650;28;20034;-74
2022/11/20 08:34:40;;;;;;;26.38;16.50;;;;;;;0.06;100.00;101179.59;5033587;28;20029;-74
2022/11/20 08:37:05;;;;;;;27.30;16.10;;;;;;;0.11;100.00;101186.56;5032799;28;20376;-74
2022/11/20 08:39:30;;;;;;;25.98;16.30;;;;;;;0.12;100.00;101172.91;5033313;28;20108;-74
2022/11/20 08:41:56;;;;;;;25.95;15.80;;;;;;;0.23;100.00;101176.63;5033258;28;20390;-74
2022/11/20 08:44:21;;;;;;;27.67;16.67;;;;;;;0.30;100.00;101172.50;5032850;28;20033;-74
2022/11/20 08:46:47;;;;;;;27.58;16.63;;;;;;;0.37;100.00;101176.09;5033422;28;20043;-74
2022/11/20 08:49:13;;;;;;;29.63;17.95;;;;;;;0.45;100.00;101172.84;5033462;28;20017;-74
2022/11/20 08:51:40;;;;;;;27.30;16.48;;;;;;;0.49;100.00;101166.13;5032643;28;20026;-74
2022/11/20 08:54:06;;;;;;;27.77;16.60;;;;;;;0.59;100.00;101164.59;5033365;28;20389;-74
2022/11/20 08:56:31;;;;;;;29.17;17.40;;;;;;;0.60;100.00;101150.94;5033246;28;20037;-74
2022/11/20 08:58:59;;;;;;;28.42;16.52;;;;;;;0.74;100.00;101170.06;5032550;28;20468;-74
2022/11/20 09:01:24;;;;;;;28.73;18.13;;;;;;;0.77;100.00;101167.56;5033350;28;20083;-74
2022/11/20 09:03:49;;;;;;;26.48;16.60;;;;;;;0.86;100.00;101167.78;5033059;28;20400;-74
2022/11/20 09:06:15;;;;;;;28.27;16.80;;;;;;;0.89;100.00;101165.28;5032523;28;20026;-74
2022/11/20 09:08:41;;;;;;;28.45;16.65;;;;;;;0.95;100.00;101167.13;5033058;28;20488;-74
2022/11/20 09:11:06;;;;;;;32.38;17.50;;;;;;;0.99;100.00;101161.19;5032101;28;20025;-75
2022/11/20 09:13:35;;;;;;;31.15;18.02;;;;;;;1.00;100.00;101146.66;5032947;28;20073;-74
2022/11/20 09:16:04;;;;;;;32.25;18.27;;;;;;;1.14;100.00;101158.97;5033210;28;20021;-75
2022/11/20 09:18:31;;;;;;;30.02;17.05;;;;;;;1.22;100.00;101163.38;5032248;28;20029;-75
2022/11/20 09:21:00;;;;;;;33.58;18.83;;;;;;;1.26;100.00;101158.31;5032957;28;20489;-74
2022/11/20 09:23:27;;;;;;;36.83;20.20;;;;;;;1.25;100.00;101145.47;5032956;28;20033;-75
2022/11/20 09:25:55;;;;;;;38.58;19.58;;;;;;;1.32;100.00;101142.16;5032385;28;20423;-74
2022/11/20 09:28:20;;;;;;;35.38;19.73;;;;;;;1.35;100.00;101137.94;5033139;28;20148;-74
2022/11/20 09:30:45;;;;;;;35.45;20.00;;;;;;;1.30;100.00;101111.28;5033033;28;20108;-75
2022/11/20 09:33:11;;;;;;;40.35;22.10;;;;;;;1.53;100.00;101134.84;5032535;28;20439;-74
2022/11/20 09:35:36;;;;;;;43.25;22.75;;;;;;;1.56;100.00;101134.91;5036414;28;20208;-74
2022/11/20 09:38:06;;;;;;;44.55;22.02;;;;;;;1.59;100.00;101129.81;5036712;28;20040;-75
2022/11/20 09:40:31;;;;;;;49.58;22.58;;;;;;;1.66;100.00;101124.78;5036242;28;20477;-74
2022/11/20 09:43:03;;;;;;;50.03;23.02;;;;;;;1.62;100.00;101111.88;5036603;28;20107;-74
2022/11/20 09:45:43;;;;;;;49.90;24.10;;;;;;;1.70;100.00;101108.56;5036623;28;20090;-74
2022/11/20 09:48:26;;;;;;;53.08;23.15;;;;;;;1.66;100.00;101109.34;5035744;28;20033;-74
2022/11/20 09:51:08;;;;;;;53.10;23.73;;;;;;;1.74;100.00;101107.81;5036578;28;20017;-74
2022/11/20 09:53:36;;;;;;;51.72;23.85;;;;;;;1.80;100.00;101113.91;5035682;28;20026;-75
2022/11/20 09:56:04;;;;;;;44.47;21.85;;;;;;;1.85;100.00;101119.13;5036000;28;20021;-74
2022/11/20 09:58:42;;;;;;;48.22;21.90;;;;;;;1.85;100.00;101101.13;5036053;28;20381;-75
2022/11/20 10:01:15;;;;;;;46.33;23.02;;;;;;;1.93;100.00;101093.50;5035485;28;20103;-75
2022/11/20 10:04:02;;;;;;;45.92;22.27;;;;;;;2.03;100.00;101095.41;5036249;28;20022;-75
2022/11/20 10:06:44;;;;;;;49.58;23.17;;;;;;;2.08;100.00;101083.47;5035934;28;20457;-75
2022/11/20 10:09:12;;;;;;;46.40;23.20;;;;;;;2.13;100.00;101088.72;5035439;28;20377;-75
2022/11/20 10:11:55;;;;;;;48.38;22.85;;;;;;;2.14;100.00;101077.56;5036038;28;20053;-75
2022/11/20 10:14:42;;;;;;;46.63;20.83;;;;;;;2.17;100.00;101067.31;5034825;28;20045;-75
2022/11/20 10:17:40;;;;;;;47.35;22.83;;;;;;;2.27;100.00;101053.75;5035843;28;20045;-75
2022/11/20 10:20:29;;;;;;;45.35;23.25;;;;;;;2.34;100.00;101035.84;5035722;28;20555;-74
2022/11/20 10:23:04;;;;;;;51.28;22.83;;;;;;;2.46;100.00;101027.41;5035238;28;20037;-75
2022/11/20 10:25:40;;;;;;;52.10;24.27;;;;;;;2.57;100.00;101030.13;5035727;28;20452;-75
2022/11/20 10:28:44;;;;;;;48.78;23.95;;;;;;;2.67;100.00;101038.81;5035522;28;20458;-75
2022/11/20 10:31:18;;;;;;;53.28;24.33;;;;;;;2.69;100.00;101043.16;5034736;28;20056;-75
2022/11/20 10:33:46;;;;;;;52.70;25.25;;;;;;;2.70;100.00;101025.97;5035847;28;20036;-75
2022/11/20 10:36:21;;;;;;;52.97;25.70;;;;;;;2.74;100.00;101028.59;5034539;28;20035;-75
2022/11/20 10:38:58;;;;;;;44.30;23.67;;;;;;;2.74;100.00;101015.72;5035454;28;20068;-75
2022/11/20 10:41:29;;;;;;;47.90;24.00;;;;;;;2.74;100.00;101010.56;5035268;28;20033;-75
2022/11/20 10:44:12;;;;;;;51.55;24.60;;;;;;;2.72;100.00;101006.28;5034534;28;20079;-75
2022/11/20 10:46:44;;;;;;;48.03;24.65;;;;;;;2.71;100.00;101004.53;5034670;28;20029;-75
2022/11/20 10:49:15;;;;;;;51.08;25.02;;;;;;;2.75;100.00;100999.44;5035107;28;20030;-75
2022/11/20 10:51:49;;;;;;;51.88;26.23;;;;;;;2.78;100.00;100999.47;5034576;28;20017;-75
2022/11/20 10:54:26;;;;;;;54.03;25.17;;;;;;;2.82;100.00;100992.66;5035244;28;20025;-75
2022/11/20 10:56:56;;;;;;;48.33;24.08;;;;;;;2.88;100.00;100979.84;5034283;28;20112;-75
2022/11/20 10:59:55;;;;;;;47.08;25.90;;;;;;;2.96;100.00;100970.47;5034945;28;20044;-75
2022/11/20 11:02:21;;;;;;;51.78;23.98;;;;;;;3.00;100.00;100967.06;5035175;28;20109;-75
2022/11/20 11:04:54;;;;;;;46.25;24.27;;;;;;;3.01;100.00;100960.22;5034278;28;20063;-75
2022/11/20 11:07:36;;;;;;;47.73;25.43;;;;;;;3.07;100.00;100970.56;5034958;28;20044;-74
2022/11/20 11:10:01;;;;;;;50.55;24.17;;;;;;;3.00;100.00;100972.22;5034783;28;20295;-74
2022/11/20 11:12:28;;;;;;;48.53;24.65;;;;;;;2.93;100.00;100969.59;5033971;28;20030;-76